Time;durP1;ratioP1;P1;durP2;ratioP2;P2;SDS_P1;SDS_P2;PMS_P1;PMS_P2;Temp;Humidity;BMP_temperature;BMP_pressure;BME280_temperature;BME280_humidity;BME280_pressure;Samples;Min_cycle;Max_cycle;Signal;HPM_P1;HPM_P2
2023/01/12 00:02:08;;;;;;;8.80;1.42;;;6.30;99.90;;;;;;5013352;28;20083;-59
2023/01/12 00:04:34;;;;;;;5.63;1.52;;;6.10;99.90;;;;;;5017132;28;20033;-58
2023/01/12 00:07:03;;;;;;;10.55;1.75;;;6.00;99.90;;;;;;5017787;28;20021;-59
2023/01/12 00:09:28;;;;;;;6.00;1.40;;;6.00;99.90;;;;;;5015752;28;20040;-58
2023/01/12 00:11:54;;;;;;;7.72;2.17;;;6.00;99.90;;;;;;5012172;28;20393;-59
2023/01/12 00:14:19;;;;;;;9.98;2.17;;;6.20;99.90;;;;;;5015237;28;20506;-58
2023/01/12 00:16:45;;;;;;;6.03;1.38;;;6.40;99.90;;;;;;5013604;28;20068;-60
2023/01/12 00:19:18;;;;;;;7.63;2.42;;;6.50;99.90;;;;;;5010111;28;20037;-58
2023/01/12 00:24:16;;;;;;;6.97;1.67;;;6.60;99.90;;;;;;5023154;28;20042;-59
2023/01/12 00:26:42;;;;;;;10.48;1.90;;;6.70;99.90;;;;;;5012746;28;20105;-60
2023/01/12 00:29:08;;;;;;;6.60;1.63;;;6.80;99.90;;;;;;5014120;28;20109;-59
2023/01/12 00:31:34;;;;;;;7.30;1.33;;;6.80;99.90;;;;;;5012409;28;20124;-59
2023/01/12 00:33:59;;;;;;;4.10;1.70;;;6.70;99.90;;;;;;5012400;28;20041;-58
2023/01/12 00:36:25;;;;;;;6.15;1.65;;;6.70;99.90;;;;;;5012865;28;20156;-59
2023/01/12 00:38:50;;;;;;;6.97;1.40;;;6.70;99.90;;;;;;5015970;28;20072;-59
2023/01/12 00:46:45;;;;;;;12.75;1.30;;;6.60;99.90;;;;;;5016933;28;20041;-58
2023/01/12 00:49:10;;;;;;;8.13;1.50;;;6.50;99.90;;;;;;5012860;28;20397;-59
2023/01/12 00:51:36;;;;;;;9.98;1.55;;;6.50;99.90;;;;;;5016668;28;20034;-58
2023/01/12 00:54:03;;;;;;;14.02;3.13;;;6.50;99.90;;;;;;5013511;28;20026;-59
2023/01/12 00:56:32;;;;;;;5.43;1.45;;;6.60;99.90;;;;;;5011140;28;20219;-59
2023/01/12 00:58:58;;;;;;;4.47;1.40;;;6.60;99.90;;;;;;5015866;28;20022;-59
2023/01/12 01:01:24;;;;;;;9.52;1.88;;;6.60;99.90;;;;;;5008877;28;20035;-60
2023/01/12 01:03:49;;;;;;;8.23;1.50;;;6.60;99.90;;;;;;5012516;28;20156;-59
2023/01/12 01:06:15;;;;;;;6.97;1.38;;;6.60;99.90;;;;;;5007862;28;20034;-60
2023/01/12 01:08:40;;;;;;;7.93;1.45;;;6.60;99.90;;;;;;5017891;28;20134;-60
2023/01/12 01:11:11;;;;;;;6.68;1.85;;;6.70;99.90;;;;;;5015574;28;20430;-59
2023/01/12 01:13:42;;;;;;;9.00;2.38;;;6.70;99.90;;;;;;5011264;28;20065;-61
2023/01/12 01:16:09;;;;;;;4.80;1.50;;;6.70;99.90;;;;;;5008943;28;20072;-58
2023/01/12 01:18:35;;;;;;;7.03;1.95;;;6.60;99.90;;;;;;5006350;28;20929;-60
2023/01/12 01:21:02;;;;;;;7.18;1.63;;;6.60;99.90;;;;;;5011987;28;20113;-59
2023/01/12 01:23:31;;;;;;;12.27;1.98;;;6.60;99.90;;;;;;5011726;28;20068;-59
2023/01/12 01:26:05;;;;;;;9.25;1.73;;;6.60;99.90;;;;;;5017767;28;20505;-61
2023/01/12 01:28:31;;;;;;;9.63;2.28;;;6.60;99.90;;;;;;5009095;28;20088;-60
2023/01/12 01:31:06;;;;;;;8.25;2.10;;;6.60;99.90;;;;;;5010614;28;20479;-58
2023/01/12 01:33:32;;;;;;;5.50;2.83;;;6.60;99.90;;;;;;5007743;28;20079;-59
2023/01/12 01:35:58;;;;;;;7.13;2.20;;;6.50;99.90;;;;;;5014694;28;20030;-59
2023/01/12 01:38:24;;;;;;;9.55;1.95;;;6.50;99.90;;;;;;5015241;28;20041;-58
2023/01/12 01:40:50;;;;;;;7.63;1.77;;;6.50;99.90;;;;;;5015046;28;20027;-58
2023/01/12 01:43:18;;;;;;;10.63;1.88;;;6.50;99.90;;;;;;5018629;28;20037;-59
2023/01/12 01:45:47;;;;;;;7.63;2.08;;;6.40;99.90;;;;;;5014633;28;20041;-58
2023/01/12 01:48:15;;;;;;;4.93;1.60;;;6.40;99.90;;;;;;5016502;28;20032;-61
2023/01/12 01:50:47;;;;;;;7.97;2.08;;;6.30;99.90;;;;;;5013818;28;20426;-58
2023/01/12 01:53:18;;;;;;;6.45;2.00;;;6.30;99.90;;;;;;5003027;28;20042;-60
2023/01/12 01:55:51;;;;;;;;;;;6.30;99.90;;;;;;5003625;28;20065;-58
2023/01/12 01:58:30;;;;;;;12.10;2.03;;;6.40;99.90;;;;;;5000249;28;19959;-59
2023/01/12 02:00:57;;;;;;;5.05;2.05;;;6.50;99.90;;;;;;5002818;28;20011;-59
2023/01/12 02:03:23;;;;;;;9.40;2.22;;;6.50;99.90;;;;;;5014855;28;20034;-58
2023/01/12 02:05:51;;;;;;;6.13;1.67;;;6.60;99.90;;;;;;5008129;28;20061;-58
2023/01/12 02:08:37;;;;;;;7.63;1.70;;;6.60;99.90;;;;;;5009494;28;20045;-59
2023/01/12 02:11:02;;;;;;;13.20;1.65;;;6.70;99.90;;;;;;5006222;28;20026;-58
2023/01/12 02:16:28;;;;;;;8.43;1.50;;;6.60;99.90;;;;;;5009967;28;20036;-59
2023/01/12 02:19:15;;;;;;;10.35;1.63;;;6.50;99.90;;;;;;5010875;28;20120;-58
2023/01/12 02:21:59;;;;;;;8.73;1.98;;;6.50;99.90;;;;;;5014415;28;20780;-59
2023/01/12 02:24:40;;;;;;;7.88;1.75;;;6.50;99.90;;;;;;5011199;28;20044;-58
2023/01/12 02:27:25;;;;;;;8.43;1.55;;;6.50;99.90;;;;;;5011983;28;20033;-59
2023/01/12 02:30:15;;;;;;;5.65;2.10;;;6.40;99.90;;;;;;5014327;28;20540;-58
2023/01/12 02:33:06;;;;;;;8.07;1.50;;;6.60;99.90;;;;;;5012226;28;20037;-60
2023/01/12 02:35:54;;;;;;;10.13;2.93;;;6.50;99.90;;;;;;5008476;28;20168;-59
2023/01/12 02:38:30;;;;;;;7.35;1.50;;;6.60;99.90;;;;;;5002928;28;20278;-58
2023/01/12 02:41:02;;;;;;;10.95;1.63;;;6.60;99.90;;;;;;5005884;28;20501;-58
2023/01/12 02:43:31;;;;;;;8.75;1.35;;;6.60;99.90;;;;;;5007967;28;20030;-59
2023/01/12 02:46:10;;;;;;;9.98;1.75;;;6.60;99.90;;;;;;5009074;28;20032;-60
2023/01/12 02:48:43;;;;;;;6.90;1.40;;;6.70;99.90;;;;;;5015238;28;20034;-58
2023/01/12 02:51:41;;;;;;;9.95;1.80;;;6.70;99.90;;;;;;5010339;28;20085;-61
2023/01/12 02:54:11;;;;;;;8.75;1.85;;;6.80;99.90;;;;;;5005893;28;20568;-59
2023/01/12 02:56:40;;;;;;;11.68;2.00;;;6.80;99.90;;;;;;5008610;28;20069;-60
2023/01/12 02:59:17;;;;;;;7.05;1.48;;;6.80;99.90;;;;;;5001585;28;20056;-59
2023/01/12 03:01:46;;;;;;;7.00;1.55;;;6.80;99.90;;;;;;5008212;28;20109;-59
2023/01/12 03:04:14;;;;;;;9.25;1.65;;;6.80;99.90;;;;;;5008527;28;20046;-59
2023/01/12 03:07:05;;;;;;;6.88;1.50;;;6.80;99.90;;;;;;5009634;28;20045;-58
2023/01/12 03:09:40;;;;;;;7.90;1.35;;;6.90;99.90;;;;;;5003843;28;20041;-60
2023/01/12 03:12:13;;;;;;;4.97;1.70;;;6.90;99.90;;;;;;5002546;28;20714;-59
2023/01/12 03:14:44;;;;;;;7.53;2.17;;;6.90;99.90;;;;;;5003203;28;20038;-60
2023/01/12 03:17:16;;;;;;;8.55;1.25;;;6.70;99.90;;;;;;5012076;28;20072;-59
2023/01/12 03:19:44;;;;;;;5.88;1.48;;;6.70;99.90;;;;;;5006121;28;20041;-59
2023/01/12 03:22:13;;;;;;;8.95;2.10;;;6.70;99.90;;;;;;5010791;28;20030;-60
2023/01/12 03:24:50;;;;;;;5.95;1.23;;;6.60;99.90;;;;;;5011300;28;20052;-59
2023/01/12 03:27:31;;;;;;;13.27;1.98;;;6.70;99.90;;;;;;5009659;28;20521;-59
2023/01/12 03:30:04;;;;;;;6.55;2.00;;;6.70;99.90;;;;;;5011365;28;20026;-59
2023/01/12 03:32:30;;;;;;;14.30;1.80;;;6.80;99.90;;;;;;5012284;28;20038;-59
2023/01/12 03:34:57;;;;;;;12.15;2.00;;;6.70;99.90;;;;;;5007392;28;20029;-58
2023/01/12 03:37:29;;;;;;;7.07;2.22;;;6.70;99.90;;;;;;5008769;28;20049;-57
2023/01/12 03:40:09;;;;;;;7.68;2.42;;;6.70;99.90;;;;;;5016318;28;20069;-58
2023/01/12 03:42:50;;;;;;;10.48;2.05;;;6.80;99.90;;;;;;5014397;28;20033;-58
2023/01/12 03:45:44;;;;;;;9.98;1.45;;;6.80;99.90;;;;;;5009433;28;20549;-59
2023/01/12 03:48:36;;;;;;;8.88;1.73;;;6.80;99.90;;;;;;5006839;28;20035;-60
2023/01/12 03:51:16;;;;;;;8.95;1.60;;;6.80;99.90;;;;;;5007050;28;20404;-59
2023/01/12 03:53:43;;;;;;;5.65;1.45;;;6.80;99.90;;;;;;5007266;28;20121;-58
2023/01/12 03:56:11;;;;;;;6.63;1.75;;;6.80;99.90;;;;;;5005453;28;20638;-59
2023/01/12 03:58:37;;;;;;;6.32;1.48;;;6.80;99.90;;;;;;5000463;28;20041;-59
2023/01/12 04:01:04;;;;;;;7.03;1.52;;;6.80;99.90;;;;;;5006047;28;20018;-59
2023/01/12 04:03:30;;;;;;;8.60;2.67;;;6.80;99.90;;;;;;5007307;28;20022;-58
2023/01/12 04:05:55;;;;;;;7.35;1.42;;;6.70;99.90;;;;;;5008966;28;20049;-58
2023/01/12 04:08:21;;;;;;;10.57;1.77;;;6.70;99.90;;;;;;5011449;28;20079;-59
2023/01/12 04:10:47;;;;;;;7.10;2.00;;;6.60;99.90;;;;;;5007420;28;20034;-59
2023/01/12 04:13:13;;;;;;;9.80;1.60;;;6.60;99.90;;;;;;4990405;28;20017;-60
2023/01/12 04:15:41;;;;;;;6.28;1.50;;;6.60;99.90;;;;;;4996899;28;20411;-59
2023/01/12 04:18:10;;;;;;;6.00;1.20;;;6.60;99.90;;;;;;5009314;28;20018;-60
2023/01/12 04:20:37;;;;;;;9.02;1.40;;;6.60;99.90;;;;;;5007443;28;20565;-60
2023/01/12 04:23:03;;;;;;;11.80;1.40;;;6.60;99.90;;;;;;5008944;28;20029;-58
2023/01/12 04:25:29;;;;;;;9.60;1.38;;;6.70;99.90;;;;;;5007707;28;20038;-60
2023/01/12 04:28:01;;;;;;;5.53;1.60;;;6.70;99.90;;;;;;5004516;28;20597;-60
2023/01/12 04:30:28;;;;;;;6.90;1.55;;;6.70;99.90;;;;;;4999804;28;20121;-59
2023/01/12 04:32:54;;;;;;;8.52;0.98;;;6.80;99.90;;;;;;5011899;28;20336;-60
2023/01/12 04:35:20;;;;;;;11.52;1.50;;;6.80;99.90;;;;;;5012593;28;20050;-59
2023/01/12 04:37:46;;;;;;;6.97;1.30;;;6.90;99.90;;;;;;5010546;28;20033;-60
2023/01/12 04:40:14;;;;;;;18.85;2.20;;;6.90;99.90;;;;;;5014672;28;20036;-58
2023/01/12 04:43:00;;;;;;;4.40;1.00;;;6.90;99.90;;;;;;5012779;28;20026;-59
2023/01/12 04:45:37;;;;;;;4.35;1.20;;;7.00;99.90;;;;;;5017781;28;20022;-59
2023/01/12 04:48:13;;;;;;;10.30;1.52;;;7.10;99.90;;;;;;5010044;28;20117;-58
2023/01/12 04:50:39;;;;;;;7.50;1.23;;;7.10;99.90;;;;;;5004478;28;20034;-58
2023/01/12 04:53:07;;;;;;;7.20;1.20;;;7.00;99.90;;;;;;5004648;28;20030;-59
2023/01/12 04:55:36;;;;;;;7.72;1.35;;;7.10;99.90;;;;;;5016933;28;20033;-59
2023/01/12 04:58:02;;;;;;;5.78;1.98;;;7.20;99.90;;;;;;5016916;28;20022;-59
2023/01/12 05:00:27;;;;;;;10.38;1.75;;;7.20;99.90;;;;;;5012622;28;20482;-59
2023/01/12 05:02:58;;;;;;;6.80;1.08;;;7.20;99.90;;;;;;4998403;28;20034;-58
2023/01/12 05:05:24;;;;;;;7.63;1.88;;;7.30;99.90;;;;;;5012704;28;20245;-60
2023/01/12 05:10:34;;;;;;;7.57;1.80;;;7.30;99.90;;;;;;5008446;28;20032;-58
2023/01/12 05:13:00;;;;;;;7.35;1.73;;;7.30;99.90;;;;;;5007817;28;20022;-59
2023/01/12 05:15:25;;;;;;;4.45;1.30;;;7.30;99.90;;;;;;5007214;28;20113;-59
2023/01/12 05:17:53;;;;;;;6.38;1.73;;;7.30;99.90;;;;;;5011346;28;20029;-60
2023/01/12 05:20:19;;;;;;;5.57;1.83;;;7.30;99.90;;;;;;5016162;28;20104;-58
2023/01/12 05:22:47;;;;;;;14.95;2.00;;;7.30;99.90;;;;;;5016950;28;20033;-60
2023/01/12 05:25:13;;;;;;;10.30;1.10;;;7.20;99.90;;;;;;5013498;28;20032;-58
2023/01/12 05:27:40;;;;;;;6.78;1.67;;;7.20;99.90;;;;;;5010215;28;20058;-59
2023/01/12 05:30:06;;;;;;;4.68;1.02;;;7.20;99.90;;;;;;5010244;28;20068;-58
2023/01/12 05:32:40;;;;;;;4.55;1.05;;;7.20;99.90;;;;;;4997936;28;20053;-59
2023/01/12 05:35:07;;;;;;;2.45;0.80;;;7.10;99.90;;;;;;4996203;28;20028;-60
2023/01/12 05:37:33;;;;;;;5.68;1.20;;;7.10;99.90;;;;;;5007593;28;20474;-59
2023/01/12 05:39:59;;;;;;;5.82;1.40;;;7.10;99.90;;;;;;4994023;28;20029;-60
2023/01/12 05:45:10;;;;;;;6.40;0.98;;;7.10;99.90;;;;;;5009891;28;20460;-59
2023/01/12 05:47:35;;;;;;;6.10;1.30;;;7.10;99.90;;;;;;5008564;28;20517;-60
2023/01/12 05:50:01;;;;;;;10.60;1.67;;;7.10;99.90;;;;;;5011401;28;20036;-60
2023/01/12 05:52:27;;;;;;;7.40;1.80;;;7.00;99.90;;;;;;5005354;28;20023;-57
2023/01/12 05:54:53;;;;;;;6.95;1.58;;;6.90;99.90;;;;;;5002797;28;20014;-59
2023/01/12 05:57:19;;;;;;;4.72;1.08;;;6.90;99.90;;;;;;5012613;28;20060;-59
2023/01/12 05:59:44;;;;;;;6.13;0.95;;;6.90;99.90;;;;;;5010345;28;20541;-60
2023/01/12 06:02:12;;;;;;;7.57;1.10;;;7.00;99.90;;;;;;5006033;28;20542;-59
2023/01/12 06:04:38;;;;;;;9.82;2.95;;;7.00;99.90;;;;;;5010588;28;20079;-59
2023/01/12 06:07:04;;;;;;;5.25;1.65;;;7.00;99.90;;;;;;5009574;28;20029;-58
2023/01/12 06:09:29;;;;;;;6.13;1.33;;;7.00;99.90;;;;;;5005342;28;20030;-58
2023/01/12 06:14:41;;;;;;;5.20;1.27;;;7.00;99.90;;;;;;5004791;28;20037;-60
2023/01/12 06:17:06;;;;;;;5.80;1.95;;;7.00;99.90;;;;;;5012478;28;20033;-59
2023/01/12 06:19:32;;;;;;;7.40;1.02;;;7.00;99.90;;;;;;5012836;28;20040;-58
2023/01/12 06:21:58;;;;;;;2.88;1.30;;;7.10;99.90;;;;;;5012921;28;20055;-60
2023/01/12 06:24:26;;;;;;;4.63;1.27;;;7.10;99.90;;;;;;5005489;28;20046;-60
2023/01/12 06:26:53;;;;;;;9.35;1.08;;;7.00;99.90;;;;;;5006533;28;20074;-59
2023/01/12 06:29:18;;;;;;;5.75;1.55;;;7.00;99.90;;;;;;5007783;28;20396;-59
2023/01/12 06:31:44;;;;;;;8.00;1.30;;;7.00;99.90;;;;;;5009408;28;20029;-59
2023/01/12 06:34:10;;;;;;;3.83;1.38;;;7.00;99.90;;;;;;5013835;28;20116;-60
2023/01/12 06:36:37;;;;;;;5.68;1.10;;;6.90;99.90;;;;;;5012326;28;20064;-59
2023/01/12 06:39:02;;;;;;;6.50;1.52;;;6.90;99.90;;;;;;5012482;28;20034;-60
2023/01/12 06:44:12;;;;;;;9.75;1.27;;;6.90;99.90;;;;;;5013813;28;20033;-59
2023/01/12 06:46:38;;;;;;;5.50;1.58;;;6.80;99.90;;;;;;5010575;28;20027;-58
2023/01/12 06:49:03;;;;;;;7.70;1.17;;;6.90;99.90;;;;;;5004401;28;20145;-60
2023/01/12 06:51:29;;;;;;;2.80;1.05;;;6.80;99.90;;;;;;5006833;28;20091;-59
2023/01/12 06:53:55;;;;;;;6.28;1.65;;;6.80;99.90;;;;;;5009785;28;20115;-59
2023/01/12 06:56:21;;;;;;;8.05;1.30;;;6.90;99.90;;;;;;5011369;28;20113;-60
2023/01/12 06:58:46;;;;;;;6.43;1.27;;;6.80;99.90;;;;;;5010988;28;20022;-59
2023/01/12 07:01:12;;;;;;;9.45;2.08;;;6.90;99.90;;;;;;5010119;28;20438;-57
2023/01/12 07:03:38;;;;;;;6.63;1.38;;;6.90;99.90;;;;;;5010273;28;20033;-59
2023/01/12 07:06:04;;;;;;;7.35;1.90;;;6.90;99.90;;;;;;5015003;28;20494;-60
2023/01/12 07:08:31;;;;;;;6.03;1.38;;;6.90;99.90;;;;;;5015627;28;20044;-59
2023/01/12 07:11:02;;;;;;;4.97;1.17;;;6.90;99.90;;;;;;5015725;28;20521;-59
2023/01/12 07:13:28;;;;;;;7.07;1.20;;;7.00;99.90;;;;;;5015318;28;20025;-59
2023/01/12 07:15:56;;;;;;;4.90;1.00;;;7.00;99.90;;;;;;5010890;28;20553;-59
2023/01/12 07:18:22;;;;;;;6.80;1.48;;;7.00;99.90;;;;;;5011052;28;20104;-59
2023/01/12 07:20:47;;;;;;;4.53;1.30;;;7.10;99.90;;;;;;5008389;28;20801;-58
2023/01/12 07:23:13;;;;;;;4.60;1.17;;;7.00;99.90;;;;;;5013980;28;20072;-60
2023/01/12 07:25:38;;;;;;;2.92;0.95;;;7.10;99.90;;;;;;5013754;28;20187;-59
2023/01/12 07:28:04;;;;;;;5.40;1.25;;;7.00;99.90;;;;;;5016045;28;20136;-58
2023/01/12 07:30:30;;;;;;;7.05;1.75;;;7.00;99.90;;;;;;5012321;28;20053;-58
2023/01/12 07:33:05;;;;;;;7.50;1.55;;;7.00;99.90;;;;;;5008424;28;20367;-60
2023/01/12 07:35:31;;;;;;;6.40;1.60;;;7.00;99.90;;;;;;5006525;28;20030;-59
2023/01/12 07:37:56;;;;;;;8.32;1.30;;;6.90;99.90;;;;;;5012875;28;20092;-60
2023/01/12 07:40:22;;;;;;;5.35;1.17;;;6.90;99.90;;;;;;5011993;28;20045;-57
2023/01/12 07:42:47;;;;;;;5.82;1.25;;;6.90;99.90;;;;;;5009858;28;20133;-59
2023/01/12 07:45:13;;;;;;;6.55;2.00;;;6.90;99.90;;;;;;5004683;28;20137;-59
2023/01/12 07:47:39;;;;;;;4.35;1.55;;;6.90;99.90;;;;;;5007756;28;20148;-58
2023/01/12 07:50:05;;;;;;;7.13;1.33;;;6.80;99.90;;;;;;5010765;28;20036;-57
2023/01/12 07:52:30;;;;;;;3.28;0.98;;;6.80;99.90;;;;;;5010552;28;20031;-58
2023/01/12 07:54:56;;;;;;;7.22;1.95;;;6.80;99.90;;;;;;5012239;28;20490;-58
2023/01/12 07:57:22;;;;;;;7.80;1.45;;;6.90;99.90;;;;;;5010683;28;20080;-58
2023/01/12 07:59:47;;;;;;;7.80;1.52;;;6.90;99.90;;;;;;5011364;28;20061;-58
2023/01/12 08:02:15;;;;;;;10.48;3.10;;;6.90;99.90;;;;;;5007302;28;20107;-60
2023/01/12 08:04:41;;;;;;;5.60;1.23;;;6.90;99.90;;;;;;5008523;28;20491;-60
2023/01/12 08:07:07;;;;;;;6.38;1.40;;;6.90;99.90;;;;;;5017219;28;20021;-58
2023/01/12 08:09:33;;;;;;;8.77;1.60;;;6.90;99.90;;;;;;5012974;28;20037;-59
2023/01/12 08:11:58;;;;;;;5.32;1.60;;;7.00;99.90;;;;;;5015046;28;20038;-58
2023/01/12 08:14:32;;;;;;;6.38;1.13;;;7.00;99.90;;;;;;5017677;28;20057;-57
2023/01/12 08:17:01;;;;;;;7.38;1.10;;;6.90;99.90;;;;;;5014495;28;20632;-58
2023/01/12 08:19:37;;;;;;;8.68;1.20;;;6.90;99.90;;;;;;5009251;28;20501;-58
2023/01/12 08:22:07;;;;;;;11.75;1.30;;;6.90;99.90;;;;;;5010097;28;20397;-58
2023/01/12 08:24:40;;;;;;;4.20;1.20;;;7.00;99.90;;;;;;5009929;28;20083;-60
2023/01/12 08:27:07;;;;;;;6.28;1.30;;;7.00;99.90;;;;;;5008582;28;20041;-59
2023/01/12 08:29:49;;;;;;;8.57;1.27;;;7.00;99.90;;;;;;5006508;28;20034;-59
2023/01/12 08:32:17;;;;;;;8.98;1.20;;;6.90;99.90;;;;;;5010018;28;20433;-60
2023/01/12 08:34:45;;;;;;;6.97;2.05;;;7.00;99.90;;;;;;5011057;28;20153;-59
2023/01/12 08:37:15;;;;;;;6.80;1.20;;;7.00;99.90;;;;;;5009101;28;20025;-59
2023/01/12 08:39:41;;;;;;;4.72;1.33;;;7.00;99.90;;;;;;5009190;28;20395;-59
2023/01/12 08:42:07;;;;;;;7.13;1.25;;;7.00;99.90;;;;;;5010322;28;20561;-58
2023/01/12 08:44:36;;;;;;;7.00;1.65;;;7.00;99.90;;;;;;5012692;28;20079;-59
2023/01/12 08:47:04;;;;;;;6.10;2.17;;;7.10;99.90;;;;;;5010719;28;20045;-59
2023/01/12 08:49:32;;;;;;;7.88;1.25;;;7.10;99.90;;;;;;5005076;28;20640;-59
2023/01/12 08:51:58;;;;;;;6.60;1.33;;;7.10;99.90;;;;;;5013335;28;20026;-58
2023/01/12 08:54:24;;;;;;;5.70;1.58;;;7.00;99.90;;;;;;5011270;28;20089;-57
2023/01/12 08:56:49;;;;;;;2.53;1.08;;;7.10;99.90;;;;;;5014185;28;20038;-59
2023/01/12 08:59:15;;;;;;;6.05;1.23;;;7.10;99.90;;;;;;5010585;28;21340;-60
2023/01/12 09:01:41;;;;;;;8.02;1.95;;;7.10;99.90;;;;;;5009636;28;20042;-60
2023/01/12 09:04:07;;;;;;;8.07;1.23;;;7.00;99.90;;;;;;5013955;28;20469;-59
2023/01/12 09:06:39;;;;;;;9.23;1.20;;;7.00;99.90;;;;;;5016311;28;20037;-59
2023/01/12 09:09:08;;;;;;;7.25;1.25;;;6.90;99.90;;;;;;5011297;28;20049;-59
2023/01/12 09:11:35;;;;;;;10.23;1.40;;;6.90;99.90;;;;;;5007638;28;20398;-59
2023/01/12 09:14:01;;;;;;;6.20;1.50;;;6.80;99.90;;;;;;5011283;28;20034;-60
2023/01/12 09:16:29;;;;;;;4.78;1.30;;;6.80;99.90;;;;;;5007236;28;20037;-57
2023/01/12 09:18:55;;;;;;;4.80;1.20;;;6.70;99.90;;;;;;5011941;28;20421;-59
2023/01/12 09:21:22;;;;;;;4.30;1.27;;;6.80;99.90;;;;;;5013926;28;20033;-59
2023/01/12 09:23:49;;;;;;;7.85;1.40;;;6.80;99.90;;;;;;5011089;28;20029;-60
2023/01/12 09:26:17;;;;;;;4.55;1.27;;;6.80;99.90;;;;;;5011678;28;20025;-60
2023/01/12 09:28:44;;;;;;;7.93;1.50;;;6.80;99.90;;;;;;5010137;28;20366;-59
2023/01/12 09:31:13;;;;;;;7.68;1.83;;;6.80;99.90;;;;;;5006588;28;20033;-57
2023/01/12 09:33:39;;;;;;;7.53;1.38;;;6.80;99.90;;;;;;5006204;28;20037;-59
2023/01/12 09:36:14;;;;;;;6.80;1.58;;;6.80;99.90;;;;;;5007190;28;20126;-58
2023/01/12 09:38:42;;;;;;;6.90;1.50;;;6.80;99.90;;;;;;5010647;28;20038;-59
2023/01/12 09:46:57;;;;;;;4.68;1.73;;;6.80;99.90;;;;;;5010561;28;20038;-58
2023/01/12 09:47:33;;;;;;;12.00;1.55;;;6.80;99.90;;;;;;5008869;28;20074;-59
2023/01/12 09:50:12;;;;;;;5.00;1.55;;;6.80;99.90;;;;;;5014705;28;20532;-59
2023/01/12 09:52:40;;;;;;;8.40;3.08;;;6.80;99.90;;;;;;5014447;28;20038;-60
2023/01/12 09:55:15;;;;;;;7.88;1.65;;;6.80;99.90;;;;;;5014064;28;20026;-59
2023/01/12 09:58:19;;;;;;;9.93;1.73;;;6.80;99.90;;;;;;5017057;28;20037;-60
2023/01/12 10:00:50;;;;;;;5.28;1.27;;;6.80;99.90;;;;;;5010697;28;20030;-60
2023/01/12 10:03:34;;;;;;;8.63;3.50;;;6.80;99.90;;;;;;5007976;28;20036;-59
2023/01/12 10:06:00;;;;;;;9.15;1.55;;;6.90;99.90;;;;;;5011693;28;20018;-58
2023/01/12 10:08:32;;;;;;;5.30;1.55;;;6.80;99.90;;;;;;5012770;28;20033;-60
2023/01/12 10:11:20;;;;;;;6.70;1.63;;;6.80;99.90;;;;;;5016511;28;20021;-59
2023/01/12 10:14:10;;;;;;;8.95;1.55;;;6.80;99.90;;;;;;5016492;28;20028;-60
2023/01/12 10:17:10;;;;;;;14.18;1.60;;;6.80;99.90;;;;;;5011590;28;20540;-60
2023/01/12 10:20:12;;;;;;;2.75;1.25;;;6.80;99.90;;;;;;5016244;28;20513;-59
2023/01/12 10:22:47;;;;;;;4.72;1.60;;;6.80;99.90;;;;;;5013123;28;20528;-60
2023/01/12 10:25:25;;;;;;;5.50;1.70;;;6.80;99.90;;;;;;5024860;28;20096;-61
2023/01/12 10:27:53;;;;;;;6.25;1.50;;;6.80;99.90;;;;;;5010478;28;20482;-59
2023/01/12 10:30:34;;;;;;;11.90;1.70;;;6.80;99.90;;;;;;5008815;28;20128;-60
2023/01/12 10:33:19;;;;;;;15.10;2.97;;;6.80;99.90;;;;;;5017221;28;20026;-59
2023/01/12 10:35:58;;;;;;;11.45;1.80;;;6.80;99.90;;;;;;5022622;28;20033;-60
2023/01/12 10:38:37;;;;;;;6.78;1.52;;;6.80;99.90;;;;;;5001577;28;20387;-59
2023/01/12 10:41:11;;;;;;;15.90;1.73;;;6.90;99.90;;;;;;5007666;28;20112;-61
2023/01/12 10:43:39;;;;;;;5.47;1.60;;;6.90;99.90;;;;;;5010948;28;20030;-61
2023/01/12 10:46:27;;;;;;;8.57;1.20;;;6.90;99.90;;;;;;5005406;28;20033;-60
2023/01/12 10:49:13;;;;;;;6.65;1.77;;;6.90;99.90;;;;;;5005375;28;20072;-59
2023/01/12 10:51:58;;;;;;;3.67;1.08;;;7.00;99.90;;;;;;5007845;28;20034;-60
2023/01/12 10:54:33;;;;;;;5.50;1.50;;;7.10;99.90;;;;;;5008474;28;20034;-60
2023/01/12 10:57:18;;;;;;;11.88;1.70;;;7.20;99.90;;;;;;5010150;28;20053;-59
2023/01/12 11:00:18;;;;;;;11.27;1.70;;;7.20;99.90;;;;;;5011445;28;20437;-61
2023/01/12 11:02:43;;;;;;;6.78;1.45;;;7.30;99.90;;;;;;5010548;28;20035;-59
2023/01/12 11:05:38;;;;;;;6.28;0.98;;;7.30;99.90;;;;;;5008477;28;20431;-61
2023/01/12 11:08:27;;;;;;;7.07;1.38;;;7.30;99.90;;;;;;5008719;28;20029;-60
2023/01/12 11:10:53;;;;;;;2.90;1.10;;;7.30;99.90;;;;;;5003812;28;20684;-60
2023/01/12 11:13:45;;;;;;;5.88;1.10;;;7.20;99.90;;;;;;5008069;28;20038;-60
2023/01/12 11:16:20;;;;;;;4.85;1.10;;;7.30;99.90;;;;;;5005829;28;20038;-60
2023/01/12 11:19:09;;;;;;;10.20;1.35;;;7.30;99.90;;;;;;5011845;28;20033;-60
2023/01/12 11:21:39;;;;;;;7.00;1.35;;;7.30;99.90;;;;;;5013346;28;20490;-60
2023/01/12 11:24:32;;;;;;;6.28;0.80;;;7.30;99.90;;;;;;5002895;28;20069;-60
2023/01/12 11:27:20;;;;;;;3.60;1.20;;;7.30;99.90;;;;;;5004973;28;20034;-60
2023/01/12 11:30:17;;;;;;;4.65;1.13;;;7.30;99.90;;;;;;5006737;28;20028;-60
2023/01/12 11:32:57;;;;;;;3.17;0.60;;;7.30;99.90;;;;;;5002683;28;20048;-60
2023/01/12 11:35:48;;;;;;;1.85;0.90;;;7.30;99.90;;;;;;5010676;28;20033;-59
2023/01/12 11:38:34;;;;;;;3.28;0.98;;;7.30;99.90;;;;;;5001031;28;20394;-59
2023/01/12 11:41:02;;;;;;;6.45;1.60;;;7.30;99.90;;;;;;5010469;28;20064;-59
2023/01/12 11:43:49;;;;;;;4.00;1.25;;;7.30;99.90;;;;;;5001931;28;20029;-59
2023/01/12 11:46:25;;;;;;;2.00;0.88;;;7.30;99.90;;;;;;5008689;28;20078;-59
2023/01/12 11:49:07;;;;;;;3.65;0.93;;;7.40;99.90;;;;;;5006807;28;20069;-59
2023/01/12 11:51:32;;;;;;;3.47;0.98;;;7.30;99.90;;;;;;5009808;28;20095;-59
2023/01/12 11:53:58;;;;;;;11.52;1.13;;;7.30;99.90;;;;;;5007468;28;20489;-60
2023/01/12 11:56:58;;;;;;;2.65;0.88;;;7.40;99.90;;;;;;5015425;28;20122;-59
2023/01/12 11:59:32;;;;;;;6.13;1.25;;;7.40;99.90;;;;;;5015575;28;20113;-59
2023/01/12 12:02:31;;;;;;;4.35;0.80;;;7.40;99.90;;;;;;5002408;28;20517;-59
2023/01/12 12:05:19;;;;;;;5.78;1.13;;;7.40;99.90;;;;;;5001577;28;20077;-60
2023/01/12 12:07:59;;;;;;;2.83;0.80;;;7.50;99.90;;;;;;5009026;28;20034;-58
2023/01/12 12:10:56;;;;;;;2.33;0.70;;;7.50;99.90;;;;;;5010204;28;20477;-58
2023/01/12 12:13:29;;;;;;;5.28;1.10;;;7.60;99.90;;;;;;5011353;28;20018;-59
2023/01/12 12:16:23;;;;;;;6.75;1.35;;;7.50;99.90;;;;;;5013700;28;20026;-60
2023/01/12 12:19:20;;;;;;;4.10;0.90;;;7.50;99.90;;;;;;5011195;28;20059;-58
2023/01/12 12:21:59;;;;;;;2.90;1.10;;;7.50;99.90;;;;;;5003646;28;20030;-61
2023/01/12 12:24:25;;;;;;;6.00;3.05;;;7.60;99.90;;;;;;5004517;28;20045;-59
2023/01/12 12:27:29;;;;;;;5.22;0.85;;;7.60;99.90;;;;;;4998835;28;20022;-59
2023/01/12 12:30:13;;;;;;;4.50;1.38;;;7.60;99.90;;;;;;4979083;28;20042;-60
2023/01/12 12:32:57;;;;;;;4.13;1.30;;;7.70;99.90;;;;;;5008956;28;20034;-59
2023/01/12 12:35:48;;;;;;;6.78;1.73;;;7.70;99.90;;;;;;5005825;28;20074;-59
2023/01/12 12:38:29;;;;;;;4.03;0.90;;;7.80;99.90;;;;;;5005520;28;20036;-59
2023/01/12 12:47:45;;;;;;;5.13;0.90;;;7.80;99.90;;;;;;5010772;28;20315;-59
2023/01/12 12:50:24;;;;;;;9.40;1.48;;;7.90;99.90;;;;;;5012147;28;20056;-59
2023/01/12 12:53:05;;;;;;;5.35;1.73;;;7.90;99.90;;;;;;5004946;28;20034;-59
2023/01/12 12:55:31;;;;;;;7.85;1.02;;;8.00;99.90;;;;;;5009876;28;20033;-60
2023/01/12 12:58:05;;;;;;;3.78;0.90;;;8.00;99.90;;;;;;5017207;28;20029;-60
2023/01/12 13:00:39;;;;;;;3.85;0.88;;;8.00;99.90;;;;;;5017813;28;20022;-58
2023/01/12 13:03:05;;;;;;;4.18;1.00;;;8.10;99.90;;;;;;5016660;28;20050;-59
2023/01/12 13:05:47;;;;;;;6.35;1.30;;;8.10;99.90;;;;;;5011255;28;20041;-59
2023/01/12 13:08:23;;;;;;;3.50;0.90;;;8.20;99.90;;;;;;5010806;28;20042;-60
2023/01/12 13:10:55;;;;;;;5.63;1.10;;;8.20;99.90;;;;;;5009966;28;20592;-59
2023/01/12 13:13:31;;;;;;;9.63;1.17;;;8.30;99.90;;;;;;5017092;28;20036;-59
2023/01/12 13:16:19;;;;;;;5.00;0.88;;;8.30;99.90;;;;;;5017045;28;20554;-59
2023/01/12 13:18:47;;;;;;;3.97;1.10;;;8.40;99.90;;;;;;5006353;28;20056;-60
2023/01/12 13:21:25;;;;;;;4.72;1.08;;;8.30;99.90;;;;;;5010145;28;20030;-59
2023/01/12 13:23:51;;;;;;;4.57;1.00;;;8.40;99.90;;;;;;5011104;28;20037;-60
2023/01/12 13:26:44;;;;;;;7.32;1.33;;;8.30;99.90;;;;;;5012366;28;20026;-59
2023/01/12 13:29:27;;;;;;;7.00;1.10;;;8.20;99.90;;;;;;5008644;28;20026;-59
2023/01/12 13:31:58;;;;;;;7.50;1.48;;;8.00;99.90;;;;;;5001211;28;20026;-59
2023/01/12 13:34:35;;;;;;;5.85;1.00;;;7.90;99.90;;;;;;5009799;28;20045;-59
2023/01/12 13:37:25;;;;;;;6.15;1.35;;;7.80;99.90;;;;;;5008897;28;20023;-62
2023/01/12 13:40:03;;;;;;;5.63;1.15;;;7.80;99.90;;;;;;5004860;28;20038;-59
2023/01/12 13:45:19;;;;;;;7.03;1.08;;;7.80;99.90;;;;;;5004898;28;20033;-61
2023/01/12 13:47:47;;;;;;;7.00;2.00;;;7.80;99.90;;;;;;5014966;28;20026;-59
2023/01/12 13:50:19;;;;;;;4.75;0.90;;;7.70;99.90;;;;;;5016992;28;20025;-60
2023/01/12 13:52:58;;;;;;;6.63;1.10;;;7.80;99.90;;;;;;5014556;28;20345;-60
2023/01/12 13:55:30;;;;;;;5.70;2.22;;;7.70;99.90;;;;;;5013312;28;20048;-60
2023/01/12 13:57:59;;;;;;;10.40;1.17;;;7.70;99.90;;;;;;5014354;28;20037;-60